Ajax — WDC2573 — position and weather

sailwx.info

Track history (hours):
 
Tides and Currents Weather Stations Pressure Air Temp Water Temp Dewpoint Dewpoint Depression Visibility Wind Speed Wind Dir Waves Ship Positions

Ajax

Owner: Kirby Inland Marine LP, Houston, TX. More information available from US FCC via Universal Licensing System and Coast Guard Vessel Documentation Center.

Last reported at 2018-May-22 12:58 UTC. Time now 2018-May-22 17:39 UTC.
Position N 29°46' W 095°06'.

Length 23 m; draft 2.9 m.

Type: . MMSI: 366995150.

Date/timePositionNaut miles runAvg speedWind from/ knotsBaromVisibWave heightAir tempDewpointWater temp
2018-May-22 12:58N 29°46' W 095°06'1 1.7
2018-May-22 12:14N 29°47' W 095°05'0 1.5
2018-May-22 11:59N 29°47' W 095°05'1 2.0
2018-May-22 11:29N 29°46' W 095°05'4 6.5
2018-May-22 10:51N 29°44' W 095°09'3 0.3
2018-May-22 02:05N 29°44' W 095°12'1 0.1
2018-May-21 12:25N 29°45' W 095°11'4 0.8
2018-May-21 07:11N 29°45' W 095°06'4 0.1
2018-May-20 03:10N 29°45' W 095°10'0 0.8
2018-May-20 02:59N 29°45' W 095°10'2 2.6
2018-May-20 02:13N 29°44' W 095°07'3 0.6
2018-May-19 20:14N 29°44' W 095°04'1 1.7
2018-May-19 19:47N 29°44' W 095°03'4 0.6
2018-May-19 12:12N 29°44' W 095°08'5 3.0
2018-May-19 10:38N 29°44' W 095°13'3 5.6
2018-May-19 10:08N 29°45' W 095°11'1 6.1
2018-May-19 10:00N 29°45' W 095°10'3 5.4
2018-May-19 09:30N 29°44' W 095°07'2 0.2
2018-May-19 02:36N 29°46' W 095°06'0 3.0
2018-May-19 02:27N 29°46' W 095°05'0 0.0
2018-May-18 12:30N 29°46' W 095°05'0 0.0
2018-May-18 11:51N 29°46' W 095°05'0 0.8
2018-May-18 11:30N 29°46' W 095°06'1 2.2
2018-May-18 10:56N 29°47' W 095°05'0 0.0
2018-May-18 10:30N 29°47' W 095°05'0 0.0
2018-May-18 10:00N 29°47' W 095°05'0 0.0
2018-May-18 09:30N 29°47' W 095°05'0 0.0
2018-May-18 09:00N 29°47' W 095°05'0 0.0
2018-May-18 08:30N 29°47' W 095°05'0 0.0
2018-May-18 08:00N 29°47' W 095°05'0 0.0
2018-May-18 07:30N 29°46' W 095°05'0 0.0
2018-May-18 07:00N 29°47' W 095°05'0 0.0
2018-May-18 06:30N 29°47' W 095°05'0 0.0
2018-May-18 06:00N 29°46' W 095°05'2 3.6
2018-May-18 05:30N 29°45' W 095°06'4 7.2
2018-May-18 05:00N 29°45' W 095°10'3 6.7
2018-May-18 04:30N 29°44' W 095°14'3 5.8
2018-May-18 04:00N 29°44' W 095°17'0 0.8
2018-May-18 03:30N 29°45' W 095°17'2 4.3
2018-May-18 02:57N 29°43' W 095°15'3 6.0
2018-May-18 02:29N 29°44' W 095°12'3 6.4
2018-May-18 02:00N 29°44' W 095°08'3 6.5
2018-May-18 01:29N 29°46' W 095°05'0 0.2
2018-May-17 23:49N 29°46' W 095°05'1 0.1
2018-May-17 14:53N 29°45' W 095°06'0 0.0
2018-May-17 05:41N 29°45' W 095°06'0 0.0
2018-May-17 04:11N 29°45' W 095°06'0 0.0
2018-May-17 03:53N 29°45' W 095°06'0 0.0
2018-May-17 03:23N 29°45' W 095°06'0 0.0
2018-May-16 14:26N 29°45' W 095°06'0 0.0
2018-May-16 13:47N 29°45' W 095°06'0 0.0
2018-May-16 13:23N 29°45' W 095°06'0 0.0
2018-May-16 13:00N 29°45' W 095°06'0 0.0
2018-May-16 12:23N 29°45' W 095°06'0 0.0
2018-May-16 11:59N 29°45' W 095°06'0 0.0
2018-May-16 11:29N 29°45' W 095°06'0 0.0
2018-May-16 10:58N 29°45' W 095°06'0 0.0
2018-May-16 10:25N 29°45' W 095°06'0 0.0
2018-May-16 09:52N 29°45' W 095°06'0 0.0
2018-May-16 09:28N 29°45' W 095°06'0 0.0
2018-May-16 08:58N 29°45' W 095°06'0 0.0
2018-May-16 08:28N 29°45' W 095°06'0 0.1
2018-May-16 07:58N 29°45' W 095°06'0 0.1
2018-May-16 07:30N 29°45' W 095°06'0 0.0
2018-May-16 07:00N 29°45' W 095°06'0 0.0
2018-May-16 06:30N 29°45' W 095°06'0 0.0
2018-May-16 06:00N 29°45' W 095°06'0 0.0
2018-May-16 05:30N 29°45' W 095°06'0 0.0
2018-May-16 04:57N 29°45' W 095°06'0 0.0
2018-May-16 04:27N 29°45' W 095°06'0 0.0
2018-May-16 03:57N 29°45' W 095°06'0 0.0
2018-May-16 03:30N 29°45' W 095°06'0 0.0
2018-May-16 02:54N 29°45' W 095°06'0 0.0
2018-May-16 02:24N 29°45' W 095°06'2 0.1
2018-May-15 15:06N 29°47' W 095°05'1 0.2
2018-May-15 10:53N 29°47' W 095°04'0 0.0
2018-May-15 10:23N 29°47' W 095°04'1 3.3
2018-May-15 10:00N 29°46' W 095°05'0 0.9
2018-May-15 09:29N 29°46' W 095°06'0 0.0
2018-May-15 09:00N 29°46' W 095°06'1 0.2
2018-May-15 02:43N 29°47' W 095°05'0 0.0
2018-May-15 02:30N 29°47' W 095°05'0 0.0
2018-May-15 01:58N 29°47' W 095°05'0 0.0
2018-May-15 01:28N 29°47' W 095°05'0 0.0
2018-May-15 01:00N 29°47' W 095°05'1 0.9
2018-May-15 00:26N 29°47' W 095°04'9 4.4
2018-May-14 22:21N 29°44' W 095°14'0 0.0
2018-May-14 22:00N 29°44' W 095°14'4 3.0
2018-May-14 20:45N 29°45' W 095°10'1 5.8
2018-May-14 20:30N 29°44' W 095°08'5 0.7
2018-May-14 12:56N 29°48' W 095°04'3 0.5
2018-May-14 08:07N 29°46' W 095°06'2 0.1
2018-May-13 12:26N 29°44' W 095°08'0 0.0
2018-May-13 11:59N 29°44' W 095°08'2 0.4
2018-May-13 06:27N 29°46' W 095°06'0 0.1
2018-May-13 05:32N 29°45' W 095°06'0 0.0
2018-May-13 05:26N 29°45' W 095°06'0 0.3
2018-May-13 03:59N 29°46' W 095°06'0 0.0
2018-May-12 15:33N 29°46' W 095°05'0 0.1
2018-May-12 13:01N 29°46' W 095°06'  
Track history (hours):
 
Tides and Currents Weather Stations Pressure Air Temp Water Temp Dewpoint Dewpoint Depression Visibility Wind Speed Wind Dir Waves Ship Positions

Ajax

Owner: Kirby Inland Marine LP, Houston, TX. More information available from US FCC via Universal Licensing System and Coast Guard Vessel Documentation Center.

Last reported at 2018-May-22 12:58 UTC. Time now 2018-May-22 17:39 UTC.
Position N 29°46' W 095°06'.

Length 23 m; draft 2.9 m.

Type: . MMSI: 366995150.

Date/timePositionNaut miles runAvg speedWind from/ knotsBaromVisibWave heightAir tempDewpointWater temp
2018-May-22 12:58N 29°46' W 095°06'1 1.7
2018-May-22 12:14N 29°47' W 095°05'0 1.5
2018-May-22 11:59N 29°47' W 095°05'1 2.0
2018-May-22 11:29N 29°46' W 095°05'4 6.5
2018-May-22 10:51N 29°44' W 095°09'3 0.3
2018-May-22 02:05N 29°44' W 095°12'1 0.1
2018-May-21 12:25N 29°45' W 095°11'4 0.8
2018-May-21 07:11N 29°45' W 095°06'4 0.1
2018-May-20 03:10N 29°45' W 095°10'0 0.8
2018-May-20 02:59N 29°45' W 095°10'2 2.6
2018-May-20 02:13N 29°44' W 095°07'3 0.6
2018-May-19 20:14N 29°44' W 095°04'1 1.7
2018-May-19 19:47N 29°44' W 095°03'4 0.6
2018-May-19 12:12N 29°44' W 095°08'5 3.0
2018-May-19 10:38N 29°44' W 095°13'3 5.6
2018-May-19 10:08N 29°45' W 095°11'1 6.1
2018-May-19 10:00N 29°45' W 095°10'3 5.4
2018-May-19 09:30N 29°44' W 095°07'2 0.2
2018-May-19 02:36N 29°46' W 095°06'0 3.0
2018-May-19 02:27N 29°46' W 095°05'0 0.0
2018-May-18 12:30N 29°46' W 095°05'0 0.0
2018-May-18 11:51N 29°46' W 095°05'0 0.8
2018-May-18 11:30N 29°46' W 095°06'1 2.2
2018-May-18 10:56N 29°47' W 095°05'0 0.0
2018-May-18 10:30N 29°47' W 095°05'0 0.0
2018-May-18 10:00N 29°47' W 095°05'0 0.0
2018-May-18 09:30N 29°47' W 095°05'0 0.0
2018-May-18 09:00N 29°47' W 095°05'0 0.0
2018-May-18 08:30N 29°47' W 095°05'0 0.0
2018-May-18 08:00N 29°47' W 095°05'0 0.0
2018-May-18 07:30N 29°46' W 095°05'0 0.0
2018-May-18 07:00N 29°47' W 095°05'0 0.0
2018-May-18 06:30N 29°47' W 095°05'0 0.0
2018-May-18 06:00N 29°46' W 095°05'2 3.6
2018-May-18 05:30N 29°45' W 095°06'4 7.2
2018-May-18 05:00N 29°45' W 095°10'3 6.7
2018-May-18 04:30N 29°44' W 095°14'3 5.8
2018-May-18 04:00N 29°44' W 095°17'0 0.8
2018-May-18 03:30N 29°45' W 095°17'2 4.3
2018-May-18 02:57N 29°43' W 095°15'3 6.0
2018-May-18 02:29N 29°44' W 095°12'3 6.4
2018-May-18 02:00N 29°44' W 095°08'3 6.5
2018-May-18 01:29N 29°46' W 095°05'0 0.2
2018-May-17 23:49N 29°46' W 095°05'1 0.1
2018-May-17 14:53N 29°45' W 095°06'0 0.0
2018-May-17 05:41N 29°45' W 095°06'0 0.0
2018-May-17 04:11N 29°45' W 095°06'0 0.0
2018-May-17 03:53N 29°45' W 095°06'0 0.0
2018-May-17 03:23N 29°45' W 095°06'0 0.0
2018-May-16 14:26N 29°45' W 095°06'0 0.0
2018-May-16 13:47N 29°45' W 095°06'0 0.0
2018-May-16 13:23N 29°45' W 095°06'0 0.0
2018-May-16 13:00N 29°45' W 095°06'0 0.0
2018-May-16 12:23N 29°45' W 095°06'0 0.0
2018-May-16 11:59N 29°45' W 095°06'0 0.0
2018-May-16 11:29N 29°45' W 095°06'0 0.0
2018-May-16 10:58N 29°45' W 095°06'0 0.0
2018-May-16 10:25N 29°45' W 095°06'0 0.0
2018-May-16 09:52N 29°45' W 095°06'0 0.0
2018-May-16 09:28N 29°45' W 095°06'0 0.0
2018-May-16 08:58N 29°45' W 095°06'0 0.0
2018-May-16 08:28N 29°45' W 095°06'0 0.1
2018-May-16 07:58N 29°45' W 095°06'0 0.1
2018-May-16 07:30N 29°45' W 095°06'0 0.0
2018-May-16 07:00N 29°45' W 095°06'0 0.0
2018-May-16 06:30N 29°45' W 095°06'0 0.0
2018-May-16 06:00N 29°45' W 095°06'0 0.0
2018-May-16 05:30N 29°45' W 095°06'0 0.0
2018-May-16 04:57N 29°45' W 095°06'0 0.0
2018-May-16 04:27N 29°45' W 095°06'0 0.0
2018-May-16 03:57N 29°45' W 095°06'0 0.0
2018-May-16 03:30N 29°45' W 095°06'0 0.0
2018-May-16 02:54N 29°45' W 095°06'0 0.0
2018-May-16 02:24N 29°45' W 095°06'2 0.1
2018-May-15 15:06N 29°47' W 095°05'1 0.2
2018-May-15 10:53N 29°47' W 095°04'0 0.0
2018-May-15 10:23N 29°47' W 095°04'1 3.3
2018-May-15 10:00N 29°46' W 095°05'0 0.9
2018-May-15 09:29N 29°46' W 095°06'0 0.0
2018-May-15 09:00N 29°46' W 095°06'1 0.2
2018-May-15 02:43N 29°47' W 095°05'0 0.0
2018-May-15 02:30N 29°47' W 095°05'0 0.0
2018-May-15 01:58N 29°47' W 095°05'0 0.0
2018-May-15 01:28N 29°47' W 095°05'0 0.0
2018-May-15 01:00N 29°47' W 095°05'1 0.9
2018-May-15 00:26N 29°47' W 095°04'9 4.4
2018-May-14 22:21N 29°44' W 095°14'0 0.0
2018-May-14 22:00N 29°44' W 095°14'4 3.0
2018-May-14 20:45N 29°45' W 095°10'1 5.8
2018-May-14 20:30N 29°44' W 095°08'5 0.7
2018-May-14 12:56N 29°48' W 095°04'3 0.5
2018-May-14 08:07N 29°46' W 095°06'2 0.1
2018-May-13 12:26N 29°44' W 095°08'0 0.0
2018-May-13 11:59N 29°44' W 095°08'2 0.4
2018-May-13 06:27N 29°46' W 095°06'0 0.1
2018-May-13 05:32N 29°45' W 095°06'0 0.0
2018-May-13 05:26N 29°45' W 095°06'0 0.3
2018-May-13 03:59N 29°46' W 095°06'0 0.0
2018-May-12 15:33N 29°46' W 095°05'0 0.1
2018-May-12 13:01N 29°46' W 095°06'  

Dump ship's entire track history